sensor_id;sensor_type;location;lat;lon;timestamp;pressure;altitude;pressure_sealevel;temperature
73662;BMP280;61956;52.540;13.382;2023-04-24T11:44:46;87623.84;;;17.36
73662;BMP280;61956;52.540;13.382;2023-04-24T11:47:35;89618.75;;;17.42
73662;BMP280;61956;52.540;13.382;2023-04-24T11:50:07;89242.84;;;17.36
73662;BMP280;61956;52.540;13.382;2023-04-24T11:52:39;89444.25;;;17.30
73662;BMP280;61956;52.540;13.382;2023-04-24T11:55:23;89527.53;;;17.26
73662;BMP280;61956;52.540;13.382;2023-04-24T11:57:56;90587.66;;;17.28
73662;BMP280;61956;52.540;13.382;2023-04-24T12:00:28;95131.25;;;17.78
73662;BMP280;61956;52.540;13.382;2023-04-24T12:03:07;96144.34;;;18.11
73662;BMP280;61956;52.540;13.382;2023-04-24T12:05:38;96031.09;;;18.24
73662;BMP280;61956;52.540;13.382;2023-04-24T12:08:09;98154.34;;;18.56
73662;BMP280;61956;52.540;13.382;2023-04-24T12:10:38;98688.09;;;18.85
73662;BMP280;61956;52.540;13.382;2023-04-24T12:13:09;99266.63;;;19.11
73662;BMP280;61956;52.540;13.382;2023-04-24T12:15:39;97875.38;;;19.12
73662;BMP280;61956;52.540;13.382;2023-04-24T12:18:12;94357.19;;;18.72
73662;BMP280;61956;52.540;13.382;2023-04-24T13:22:35;97979.84;;;19.49
73662;BMP280;61956;52.540;13.382;2023-04-24T13:25:06;97812.28;;;19.42
73662;BMP280;61956;52.540;13.382;2023-04-24T13:27:37;96805.03;;;19.31
73662;BMP280;61956;52.540;13.382;2023-04-24T13:30:08;96210.06;;;19.19
73662;BMP280;61956;52.540;13.382;2023-04-24T13:35:19;94743.25;;;18.89
73662;BMP280;61956;52.540;13.382;2023-04-24T13:37:48;95146.31;;;18.83
73662;BMP280;61956;52.540;13.382;2023-04-24T13:40:18;94094.56;;;18.64
73662;BMP280;61956;52.540;13.382;2023-04-24T13:42:47;95481.69;;;18.72
73662;BMP280;61956;52.540;13.382;2023-04-24T13:45:16;95584.31;;;18.74
73662;BMP280;61956;52.540;13.382;2023-04-24T13:47:46;94902.63;;;18.63
73662;BMP280;61956;52.540;13.382;2023-04-24T13:50:15;96217.81;;;18.73
73662;BMP280;61956;52.540;13.382;2023-04-24T13:52:47;96514.34;;;18.76
73662;BMP280;61956;52.540;13.382;2023-04-24T13:55:16;96646.69;;;18.75
73662;BMP280;61956;52.540;13.382;2023-04-24T13:57:45;98483.28;;;19.04
73662;BMP280;61956;52.540;13.382;2023-04-24T14:00:15;98619.16;;;19.19
73662;BMP280;61956;52.540;13.382;2023-04-24T14:02:46;98308.44;;;19.26
73662;BMP280;61956;52.540;13.382;2023-04-24T14:05:16;95686.63;;;18.94
73662;BMP280;61956;52.540;13.382;2023-04-24T14:07:49;95265.00;;;18.74
73662;BMP280;61956;52.540;13.382;2023-04-24T14:10:19;95672.78;;;18.73
73662;BMP280;61956;52.540;13.382;2023-04-24T14:12:48;97487.94;;;18.92
73662;BMP280;61956;52.540;13.382;2023-04-24T14:15:17;97487.25;;;19.02
73662;BMP280;61956;52.540;13.382;2023-04-24T14:17:47;95350.81;;;18.74
73662;BMP280;61956;52.540;13.382;2023-04-24T14:20:17;94934.81;;;18.63
73662;BMP280;61956;52.540;13.382;2023-04-24T14:22:49;94158.56;;;18.49
73662;BMP280;61956;52.540;13.382;2023-04-24T14:25:19;94924.53;;;18.47
73662;BMP280;61956;52.540;13.382;2023-04-24T14:27:48;95767.59;;;18.55
73662;BMP280;61956;52.540;13.382;2023-04-24T14:30:17;97014.50;;;18.74
73662;BMP280;61956;52.540;13.382;2023-04-24T14:32:47;98267.66;;;18.94
73662;BMP280;61956;52.540;13.382;2023-04-24T14:36:40;99654.38;;;19.35
73662;BMP280;61956;52.540;13.382;2023-04-24T14:39:10;98947.91;;;19.39
73662;BMP280;61956;52.540;13.382;2023-04-24T14:41:40;96380.84;;;19.12
73662;BMP280;61956;52.540;13.382;2023-04-24T14:44:09;96485.63;;;19.03
73662;BMP280;61956;52.540;13.382;2023-04-24T14:46:41;98164.88;;;19.18
73662;BMP280;61956;52.540;13.382;2023-04-24T14:49:11;98785.19;;;19.37
73662;BMP280;61956;52.540;13.382;2023-04-24T14:51:42;98983.81;;;19.47
73662;BMP280;61956;52.540;13.382;2023-04-24T14:54:12;97653.78;;;19.38
73662;BMP280;61956;52.540;13.382;2023-04-24T14:56:42;96284.03;;;19.14
73662;BMP280;61956;52.540;13.382;2023-04-24T14:59:11;94815.41;;;18.94
73662;BMP280;61956;52.540;13.382;2023-04-24T15:01:40;94681.81;;;18.77
73662;BMP280;61956;52.540;13.382;2023-04-24T15:06:01;95316.31;;;18.75
73662;BMP280;61956;52.540;13.382;2023-04-24T15:08:30;95299.94;;;18.71
73662;BMP280;61956;52.540;13.382;2023-04-24T15:10:59;94712.22;;;18.65
73662;BMP280;61956;52.540;13.382;2023-04-24T15:16:06;93439.69;;;18.43
73662;BMP280;61956;52.540;13.382;2023-04-24T15:19:52;95694.22;;;18.52
73662;BMP280;61956;52.540;13.382;2023-04-24T15:23:25;97030.28;;;18.81
73662;BMP280;61956;52.540;13.382;2023-04-24T15:25:54;94881.56;;;18.67
73662;BMP280;61956;52.540;13.382;2023-04-24T15:34:27;89614.00;;;17.67
73662;BMP280;61956;52.540;13.382;2023-04-24T15:36:57;90289.50;;;17.56
73662;BMP280;61956;52.540;13.382;2023-04-24T15:41:18;89655.28;;;17.32
73662;BMP280;61956;52.540;13.382;2023-04-24T15:43:47;90976.38;;;17.35
73662;BMP280;61956;52.540;13.382;2023-04-24T15:46:16;91488.88;;;17.37
73662;BMP280;61956;52.540;13.382;2023-04-24T15:52:26;91635.06;;;17.35
73662;BMP280;61956;52.540;13.382;2023-04-24T15:57:11;91528.06;;;17.24
73662;BMP280;61956;52.540;13.382;2023-04-24T16:00:53;90616.03;;;17.08
73662;BMP280;61956;52.540;13.382;2023-04-24T16:06:41;89682.53;;;16.84
73662;BMP280;61956;52.540;13.382;2023-04-24T16:15:01;91492.88;;;16.93
73662;BMP280;61956;52.540;13.382;2023-04-24T16:44:52;88030.47;;;16.39
73662;BMP280;61956;52.540;13.382;2023-04-24T16:47:43;85738.16;;;16.03
73662;BMP280;61956;52.540;13.382;2023-04-24T16:57:28;84182.50;;;15.38
73662;BMP280;61956;52.540;13.382;2023-04-24T16:59:57;82663.81;;;15.14
73662;BMP280;61956;52.540;13.382;2023-04-24T17:02:26;82561.03;;;15.00
73662;BMP280;61956;52.540;13.382;2023-04-24T17:04:56;83277.69;;;14.98
73662;BMP280;61956;52.540;13.382;2023-04-24T17:07:25;84197.06;;;15.00
73662;BMP280;61956;52.540;13.382;2023-04-24T17:09:55;84099.72;;;14.93
73662;BMP280;61956;52.540;13.382;2023-04-24T17:12:24;82791.50;;;14.77
73662;BMP280;61956;52.540;13.382;2023-04-24T17:14:56;81803.72;;;14.56
73662;BMP280;61956;52.540;13.382;2023-04-24T17:17:25;80819.34;;;14.40
73662;BMP280;61956;52.540;13.382;2023-04-24T17:19:55;82927.88;;;14.49
73662;BMP280;61956;52.540;13.382;2023-04-24T17:22:24;82895.50;;;14.46
73662;BMP280;61956;52.540;13.382;2023-04-24T17:24:53;81815.31;;;14.30
73662;BMP280;61956;52.540;13.382;2023-04-24T17:27:22;82210.78;;;14.27
73662;BMP280;61956;52.540;13.382;2023-04-24T17:29:52;81834.06;;;14.16
73662;BMP280;61956;52.540;13.382;2023-04-24T17:32:24;82785.34;;;14.20
73662;BMP280;61956;52.540;13.382;2023-04-24T17:34:53;82792.59;;;14.15
73662;BMP280;61956;52.540;13.382;2023-04-24T17:37:22;82755.09;;;14.12
73662;BMP280;61956;52.540;13.382;2023-04-24T17:39:52;82376.88;;;14.04
73662;BMP280;61956;52.540;13.382;2023-04-24T17:42:24;82254.56;;;13.99
73662;BMP280;61956;52.540;13.382;2023-04-24T17:44:56;80747.06;;;13.80
73662;BMP280;61956;52.540;13.382;2023-04-24T17:47:26;80504.19;;;13.72
73662;BMP280;61956;52.540;13.382;2023-04-24T17:49:55;80773.69;;;13.68
73662;BMP280;61956;52.540;13.382;2023-04-24T17:52:24;81155.75;;;13.65
73662;BMP280;61956;52.540;13.382;2023-04-24T17:54:53;80460.59;;;13.55
73662;BMP280;61956;52.540;13.382;2023-04-24T17:57:23;80127.28;;;13.47
73662;BMP280;61956;52.540;13.382;2023-04-24T17:59:52;80101.19;;;13.41
73662;BMP280;61956;52.540;13.382;2023-04-24T18:02:24;80971.91;;;13.42
73662;BMP280;61956;52.540;13.382;2023-04-24T18:04:53;80488.34;;;13.36
73662;BMP280;61956;52.540;13.382;2023-04-24T18:07:22;81159.28;;;13.34
73662;BMP280;61956;52.540;13.382;2023-04-24T18:09:52;81866.31;;;13.39
73662;BMP280;61956;52.540;13.382;2023-04-24T18:12:21;82102.66;;;13.37
73662;BMP280;61956;52.540;13.382;2023-04-24T18:14:50;80511.75;;;13.23
73662;BMP280;61956;52.540;13.382;2023-04-24T18:17:20;80936.16;;;13.21
73662;BMP280;61956;52.540;13.382;2023-04-24T18:19:52;80984.19;;;13.18
73662;BMP280;61956;52.540;13.382;2023-04-24T18:22:21;80670.28;;;13.11
73662;BMP280;61956;52.540;13.382;2023-04-24T18:24:50;80534.78;;;13.05
73662;BMP280;61956;52.540;13.382;2023-04-24T18:27:19;79772.69;;;12.95
73662;BMP280;61956;52.540;13.382;2023-04-24T18:29:53;78943.25;;;12.84
73662;BMP280;61956;52.540;13.382;2023-04-24T18:32:22;78736.06;;;12.75
73662;BMP280;61956;52.540;13.382;2023-04-24T18:34:54;78870.75;;;12.71
73662;BMP280;61956;52.540;13.382;2023-04-24T18:37:23;78903.91;;;12.69
73662;BMP280;61956;52.540;13.382;2023-04-24T18:39:53;78846.22;;;12.64
73662;BMP280;61956;52.540;13.382;2023-04-24T18:42:23;77969.78;;;12.54
73662;BMP280;61956;52.540;13.382;2023-04-24T18:44:52;77711.84;;;12.45
73662;BMP280;61956;52.540;13.382;2023-04-24T18:47:26;76198.06;;;12.28
73662;BMP280;61956;52.540;13.382;2023-04-24T18:49:58;75087.63;;;12.13
73662;BMP280;61956;52.540;13.382;2023-04-24T18:52:27;74791.03;;;12.01
73662;BMP280;61956;52.540;13.382;2023-04-24T18:54:57;74254.72;;;11.91
73662;BMP280;61956;52.540;13.382;2023-04-24T18:57:26;73892.09;;;11.80
73662;BMP280;61956;52.540;13.382;2023-04-24T18:59:56;73511.28;;;11.71
73662;BMP280;61956;52.540;13.382;2023-04-24T19:02:25;73936.72;;;11.67
73662;BMP280;61956;52.540;13.382;2023-04-24T19:04:54;74512.03;;;11.68
73662;BMP280;61956;52.540;13.382;2023-04-24T19:07:26;73833.06;;;11.59
73662;BMP280;61956;52.540;13.382;2023-04-24T19:09:55;73294.84;;;11.49
73662;BMP280;61956;52.540;13.382;2023-04-24T19:12:25;73721.25;;;11.46
73662;BMP280;61956;52.540;13.382;2023-04-24T19:14:54;73164.31;;;11.38
73662;BMP280;61956;52.540;13.382;2023-04-24T19:17:23;74045.38;;;11.39
73662;BMP280;61956;52.540;13.382;2023-04-24T19:19:53;74317.91;;;11.36
73662;BMP280;61956;52.540;13.382;2023-04-24T19:22:22;74884.44;;;11.39
73662;BMP280;61956;52.540;13.382;2023-04-24T19:24:56;75060.03;;;11.35
73662;BMP280;61956;52.540;13.382;2023-04-24T19:27:25;75233.06;;;11.35
73662;BMP280;61956;52.540;13.382;2023-04-24T19:29:55;75562.59;;;11.35
73662;BMP280;61956;52.540;13.382;2023-04-24T19:32:24;76837.81;;;11.43
73662;BMP280;61956;52.540;13.382;2023-04-24T19:34:53;77959.84;;;11.50
73662;BMP280;61956;52.540;13.382;2023-04-24T19:37:22;78123.22;;;11.53
73662;BMP280;61956;52.540;13.382;2023-04-24T19:39:51;77427.94;;;11.47
73662;BMP280;61956;52.540;13.382;2023-04-24T19:42:23;77069.09;;;11.42
73662;BMP280;61956;52.540;13.382;2023-04-24T19:44:53;76886.41;;;11.40
73662;BMP280;61956;52.540;13.382;2023-04-24T19:47:22;76281.53;;;11.31
73662;BMP280;61956;52.540;13.382;2023-04-24T19:49:52;75947.88;;;11.28
73662;BMP280;61956;52.540;13.382;2023-04-24T19:52:21;76143.22;;;11.25
73662;BMP280;61956;52.540;13.382;2023-04-24T19:54:50;75630.56;;;11.18
73662;BMP280;61956;52.540;13.382;2023-04-24T19:57:19;75780.69;;;11.17
73662;BMP280;61956;52.540;13.382;2023-04-24T19:59:51;75455.22;;;11.11
73662;BMP280;61956;52.540;13.382;2023-04-24T20:02:20;75337.97;;;11.07
73662;BMP280;61956;52.540;13.382;2023-04-24T20:04:50;75006.31;;;11.01
73662;BMP280;61956;52.540;13.382;2023-04-24T20:07:20;74537.34;;;10.93
73662;BMP280;61956;52.540;13.382;2023-04-24T20:09:50;73076.75;;;10.79
73662;BMP280;61956;52.540;13.382;2023-04-24T20:12:20;73984.34;;;10.81
73662;BMP280;61956;52.540;13.382;2023-04-24T20:14:52;74229.50;;;10.80
73662;BMP280;61956;52.540;13.382;2023-04-24T20:17:21;73720.88;;;10.73
73662;BMP280;61956;52.540;13.382;2023-04-24T20:19:51;73734.94;;;10.70
73662;BMP280;61956;52.540;13.382;2023-04-24T20:22:20;73433.25;;;10.64
73662;BMP280;61956;52.540;13.382;2023-04-24T20:24:49;74416.47;;;10.68
73662;BMP280;61956;52.540;13.382;2023-04-24T20:27:19;75501.31;;;10.74
73662;BMP280;61956;52.540;13.382;2023-04-24T20:29:51;74301.09;;;10.65
73662;BMP280;61956;52.540;13.382;2023-04-24T20:32:20;75693.28;;;10.71
73662;BMP280;61956;52.540;13.382;2023-04-24T20:34:49;77028.59;;;10.82
73662;BMP280;61956;52.540;13.382;2023-04-24T20:37:19;77930.94;;;10.88
73662;BMP280;61956;52.540;13.382;2023-04-24T20:39:49;77981.66;;;10.89
73662;BMP280;61956;52.540;13.382;2023-04-24T20:42:18;76724.56;;;10.80
73662;BMP280;61956;52.540;13.382;2023-04-24T20:44:47;77277.69;;;10.82
73662;BMP280;61956;52.540;13.382;2023-04-24T20:47:19;76799.41;;;10.78
73662;BMP280;61956;52.540;13.382;2023-04-24T20:49:48;75345.50;;;10.66
73662;BMP280;61956;52.540;13.382;2023-04-24T20:52:18;74398.28;;;10.56
73662;BMP280;61956;52.540;13.382;2023-04-24T20:54:47;74270.38;;;10.52
73662;BMP280;61956;52.540;13.382;2023-04-24T20:57:17;73463.19;;;10.42
73662;BMP280;61956;52.540;13.382;2023-04-24T20:59:46;73427.34;;;10.37
73662;BMP280;61956;52.540;13.382;2023-04-24T21:02:18;73469.69;;;10.34
73662;BMP280;61956;52.540;13.382;2023-04-24T21:04:47;73775.91;;;10.34
73662;BMP280;61956;52.540;13.382;2023-04-24T21:07:17;72650.78;;;10.25
73662;BMP280;61956;52.540;13.382;2023-04-24T21:09:46;72658.63;;;10.20
73662;BMP280;61956;52.540;13.382;2023-04-24T21:12:16;72865.84;;;10.17
73662;BMP280;61956;52.540;13.382;2023-04-24T21:14:45;73076.38;;;10.17
73662;BMP280;61956;52.540;13.382;2023-04-24T21:17:14;74001.59;;;10.20
73662;BMP280;61956;52.540;13.382;2023-04-24T21:19:46;73676.66;;;10.16
73662;BMP280;61956;52.540;13.382;2023-04-24T21:22:15;74371.47;;;10.20
73662;BMP280;61956;52.540;13.382;2023-04-24T21:24:45;74532.75;;;10.19
73662;BMP280;61956;52.540;13.382;2023-04-24T21:27:14;74889.00;;;10.21
73662;BMP280;61956;52.540;13.382;2023-04-24T21:29:43;74752.53;;;10.18
73662;BMP280;61956;52.540;13.382;2023-04-24T21:32:13;74300.50;;;10.14
73662;BMP280;61956;52.540;13.382;2023-04-24T21:34:42;74204.63;;;10.11
73662;BMP280;61956;52.540;13.382;2023-04-24T21:37:14;73943.88;;;10.07
73662;BMP280;61956;52.540;13.382;2023-04-24T21:39:43;75625.00;;;10.17
73662;BMP280;61956;52.540;13.382;2023-04-24T21:42:12;76627.88;;;10.25
73662;BMP280;61956;52.540;13.382;2023-04-24T21:44:41;76618.78;;;10.26
73662;BMP280;61956;52.540;13.382;2023-04-24T21:47:11;76518.72;;;10.24
73662;BMP280;61956;52.540;13.382;2023-04-24T21:49:40;76225.31;;;10.21
73662;BMP280;61956;52.540;13.382;2023-04-24T21:52:09;76152.19;;;10.20
73662;BMP280;61956;52.540;13.382;2023-04-24T21:54:41;76786.31;;;10.22
73662;BMP280;61956;52.540;13.382;2023-04-24T21:57:10;76117.03;;;10.18
73662;BMP280;61956;52.540;13.382;2023-04-24T21:59:40;76467.19;;;10.19
73662;BMP280;61956;52.540;13.382;2023-04-24T22:02:10;76852.00;;;10.21
73662;BMP280;61956;52.540;13.382;2023-04-24T22:04:39;76404.91;;;10.18
73662;BMP280;61956;52.540;13.382;2023-04-24T22:07:09;77031.97;;;10.21
73662;BMP280;61956;52.540;13.382;2023-04-24T22:09:41;76296.03;;;10.15
73662;BMP280;61956;52.540;13.382;2023-04-24T22:12:11;75976.41;;;10.12
73662;BMP280;61956;52.540;13.382;2023-04-24T22:14:40;76200.00;;;10.12
73662;BMP280;61956;52.540;13.382;2023-04-24T22:17:09;75602.88;;;10.05
73662;BMP280;61956;52.540;13.382;2023-04-24T22:19:40;75474.66;;;10.03
73662;BMP280;61956;52.540;13.382;2023-04-24T22:22:09;76600.03;;;10.09
73662;BMP280;61956;52.540;13.382;2023-04-24T22:24:41;77265.41;;;10.13
73662;BMP280;61956;52.540;13.382;2023-04-24T22:27:10;76688.59;;;10.10
73662;BMP280;61956;52.540;13.382;2023-04-24T22:29:40;75806.69;;;10.03
73662;BMP280;61956;52.540;13.382;2023-04-24T22:32:09;76065.59;;;10.03
73662;BMP280;61956;52.540;13.382;2023-04-24T22:34:38;74878.16;;;9.93
73662;BMP280;61956;52.540;13.382;2023-04-24T22:37:08;75635.56;;;9.95
73662;BMP280;61956;52.540;13.382;2023-04-24T22:39:37;75344.44;;;9.92
73662;BMP280;61956;52.540;13.382;2023-04-24T22:42:08;75326.72;;;9.90
73662;BMP280;61956;52.540;13.382;2023-04-24T22:44:38;75243.97;;;9.89
73662;BMP280;61956;52.540;13.382;2023-04-24T22:47:08;75268.78;;;9.86
73662;BMP280;61956;52.540;13.382;2023-04-24T22:49:37;75797.03;;;9.88
73662;BMP280;61956;52.540;13.382;2023-04-24T22:52:06;76519.63;;;9.93
73662;BMP280;61956;52.540;13.382;2023-04-24T22:54:36;76019.69;;;9.89
73662;BMP280;61956;52.540;13.382;2023-04-24T22:57:08;75671.44;;;9.86
73662;BMP280;61956;52.540;13.382;2023-04-24T22:59:37;76480.16;;;9.90
73662;BMP280;61956;52.540;13.382;2023-04-24T23:02:07;76457.03;;;9.90
73662;BMP280;61956;52.540;13.382;2023-04-24T23:04:36;77463.81;;;9.96
73662;BMP280;61956;52.540;13.382;2023-04-24T23:07:05;78077.84;;;10.00
73662;BMP280;61956;52.540;13.382;2023-04-24T23:09:34;78374.00;;;10.03
73662;BMP280;61956;52.540;13.382;2023-04-24T23:12:04;78118.22;;;10.02
73662;BMP280;61956;52.540;13.382;2023-04-24T23:14:37;77347.53;;;9.95
73662;BMP280;61956;52.540;13.382;2023-04-24T23:17:07;77822.91;;;9.98
73662;BMP280;61956;52.540;13.382;2023-04-24T23:19:37;77607.78;;;9.96
73662;BMP280;61956;52.540;13.382;2023-04-24T23:22:06;77497.44;;;9.94
73662;BMP280;61956;52.540;13.382;2023-04-24T23:24:35;77737.09;;;9.94
73662;BMP280;61956;52.540;13.382;2023-04-24T23:27:05;76759.06;;;9.89
73662;BMP280;61956;52.540;13.382;2023-04-24T23:29:36;77421.69;;;9.93
73662;BMP280;61956;52.540;13.382;2023-04-24T23:32:06;78880.66;;;10.03
73662;BMP280;61956;52.540;13.382;2023-04-24T23:34:35;79407.25;;;10.04
73662;BMP280;61956;52.540;13.382;2023-04-24T23:37:06;79034.25;;;10.04
73662;BMP280;61956;52.540;13.382;2023-04-24T23:39:35;78302.97;;;9.99
73662;BMP280;61956;52.540;13.382;2023-04-24T23:42:04;76732.19;;;9.88
73662;BMP280;61956;52.540;13.382;2023-04-24T23:44:36;76677.88;;;9.85
73662;BMP280;61956;52.540;13.382;2023-04-24T23:47:06;76297.53;;;9.81
73662;BMP280;61956;52.540;13.382;2023-04-24T23:49:35;75075.25;;;9.69
73662;BMP280;61956;52.540;13.382;2023-04-24T23:52:04;74852.47;;;9.65
73662;BMP280;61956;52.540;13.382;2023-04-24T23:54:33;75870.41;;;9.71
73662;BMP280;61956;52.540;13.382;2023-04-24T23:57:03;76176.03;;;9.71
73662;BMP280;61956;52.540;13.382;2023-04-24T23:59:32;76891.63;;;9.75
